createdAt,value
2022-10-29T06:43:47.627Z,98147.91
2022-10-29T06:46:14.807Z,98150.41
2022-10-29T06:48:41.981Z,98149.75
2022-10-29T06:51:10.869Z,98149.75
2022-10-29T06:53:38.132Z,98153.22
2022-10-29T06:56:05.576Z,98152.28
2022-10-29T06:58:32.789Z,98158.97
2022-10-29T07:01:01.993Z,98159.63
2022-10-29T07:03:29.315Z,98167.00
2022-10-29T07:05:56.743Z,98163.84
2022-10-29T07:08:26.576Z,98163.84
2022-10-29T07:10:54.150Z,98170.59
2022-10-29T07:13:21.438Z,98170.41
2022-10-29T07:15:49.191Z,98163.88
2022-10-29T07:18:19.355Z,98165.19
2022-10-29T07:20:53.581Z,98173.38
2022-10-29T07:23:26.505Z,98169.28
2022-10-29T07:25:56.703Z,98173.53
2022-10-29T07:28:24.062Z,98184.78
2022-10-29T07:30:51.827Z,98186.25
2022-10-29T07:33:20.719Z,98181.53
2022-10-29T07:35:47.931Z,98185.25
2022-10-29T07:38:15.257Z,98190.81
2022-10-29T07:40:47.168Z,98184.03
2022-10-29T07:43:17.436Z,98189.13
2022-10-29T07:45:49.942Z,98194.47
2022-10-29T07:48:18.327Z,98188.81
2022-10-29T07:50:47.130Z,98192.59
2022-10-29T07:53:14.432Z,98189.88
2022-10-29T07:55:41.698Z,98197.78
2022-10-29T07:58:11.451Z,98202.78
2022-10-29T08:00:39.431Z,98195.66
2022-10-29T08:03:06.744Z,98195.81
2022-10-29T08:05:34.117Z,98197.34
2022-10-29T08:08:02.943Z,98196.31
2022-10-29T08:10:30.400Z,98199.47
2022-10-29T08:12:59.008Z,98206.81
2022-10-29T08:15:26.774Z,98201.31
2022-10-29T08:17:54.028Z,98193.09
2022-10-29T08:20:21.459Z,98198.34
2022-10-29T08:22:48.755Z,98198.81
2022-10-29T08:25:17.660Z,98201.19
2022-10-29T08:27:45.011Z,98204.72
2022-10-29T08:30:13.758Z,98199.91
2022-10-29T08:32:45.610Z,98199.47
2022-10-29T08:35:12.905Z,98198.53
2022-10-29T08:37:42.337Z,98194.72
2022-10-29T08:40:13.194Z,98200.03
2022-10-29T08:42:44.844Z,98192.84
2022-10-29T08:45:24.327Z,98199.78
2022-10-29T08:48:06.773Z,98197.94
2022-10-29T08:50:34.953Z,98202.72
2022-10-29T08:53:22.403Z,98192.94
2022-10-29T08:55:49.446Z,98195.69
2022-10-29T08:58:23.836Z,98184.81
2022-10-29T09:00:54.546Z,98192.06
2022-10-29T09:03:21.985Z,98194.09
2022-10-29T09:05:51.119Z,98192.13
2022-10-29T09:08:25.960Z,98185.75
2022-10-29T09:10:54.219Z,98185.53
2022-10-29T09:13:41.134Z,98175.44
2022-10-29T09:16:18.453Z,98182.66
2022-10-29T09:18:57.184Z,98179.34
2022-10-29T09:21:29.030Z,98181.41
2022-10-29T09:24:02.635Z,98179.06
2022-10-29T09:26:31.474Z,98176.28
2022-10-29T09:29:10.850Z,98173.84
2022-10-29T09:31:40.655Z,98170.41
2022-10-29T09:34:15.124Z,98164.69
2022-10-29T09:36:42.737Z,98163.88
2022-10-29T09:39:13.012Z,98163.00
2022-10-29T09:41:40.558Z,98164.63
2022-10-29T09:44:15.558Z,98155.63
2022-10-29T09:46:46.853Z,98157.97
2022-10-29T09:49:26.820Z,98152.16
2022-10-29T09:52:00.136Z,98160.88
2022-10-29T09:54:32.927Z,98167.75
2022-10-29T09:57:10.673Z,98167.88
2022-10-29T09:59:41.116Z,98155.75
2022-10-29T10:02:26.181Z,98160.25
2022-10-29T10:04:54.616Z,98161.41
2022-10-29T10:07:25.474Z,98157.66
2022-10-29T10:12:45.683Z,98154.38
2022-10-29T10:15:22.775Z,98159.94
2022-10-29T10:18:00.507Z,98153.53
2022-10-29T10:20:30.759Z,98154.38
2022-10-29T10:22:58.149Z,98150.78
2022-10-29T10:25:32.973Z,98146.53
2022-10-29T10:28:04.089Z,98146.69
2022-10-29T10:30:32.781Z,98142.16
2022-10-29T10:33:11.920Z,98140.25
2022-10-29T10:35:39.293Z,98145.50
2022-10-29T10:38:09.498Z,98138.13
2022-10-29T10:40:36.801Z,98140.38
2022-10-29T10:43:06.868Z,98135.03
2022-10-29T10:45:38.234Z,98131.06
2022-10-29T10:48:08.332Z,98127.25
2022-10-29T10:50:35.636Z,98122.16
2022-10-29T10:53:03.614Z,98121.94
2022-10-29T10:55:32.065Z,98119.09
2022-10-29T10:58:04.339Z,98127.31
2022-10-29T11:00:35.180Z,98109.09
2022-10-29T11:03:10.585Z,98114.31
2022-10-29T11:05:39.511Z,98110.88
2022-10-29T11:08:10.531Z,98105.25
2022-10-29T11:10:40.032Z,98096.22
2022-10-29T11:13:08.090Z,98094.34
2022-10-29T11:15:38.265Z,98092.50
2022-10-29T11:18:13.635Z,98089.81
2022-10-29T11:20:43.011Z,98094.06
2022-10-29T11:23:20.991Z,98085.25
2022-10-29T11:25:50.349Z,98083.38
2022-10-29T11:28:21.750Z,98078.53
2022-10-29T11:30:51.931Z,98080.44
2022-10-29T11:33:26.693Z,98074.81
2022-10-29T11:35:57.465Z,98074.28
2022-10-29T11:38:30.502Z,98070.00
2022-10-29T11:40:59.272Z,98069.38
2022-10-29T11:43:26.713Z,98069.38
2022-10-29T11:45:58.671Z,98055.78
2022-10-29T11:48:33.793Z,98057.69
2022-10-29T11:51:03.033Z,98056.84
2022-10-29T11:53:44.953Z,98053.53
2022-10-29T11:56:14.355Z,98047.78
2022-10-29T11:58:44.553Z,98048.34
2022-10-29T12:01:15.127Z,98043.84
2022-10-29T12:03:59.462Z,98046.16
2022-10-29T12:06:29.332Z,98047.91
2022-10-29T12:09:06.780Z,98043.66
2022-10-29T12:11:42.889Z,98043.59
2022-10-29T12:14:19.259Z,98038.25
2022-10-29T12:16:50.286Z,98035.47
2022-10-29T12:19:27.580Z,98034.69
2022-10-29T12:21:56.349Z,98025.38
2022-10-29T12:24:33.739Z,98017.00
2022-10-29T12:27:05.002Z,98013.00
2022-10-29T12:29:35.643Z,98011.00
2022-10-29T12:32:06.619Z,98013.94
2022-10-29T12:34:37.778Z,98008.88
2022-10-29T12:37:09.125Z,98005.59
2022-10-29T12:39:37.021Z,98006.72
2022-10-29T12:42:05.523Z,98005.28
2022-10-29T12:44:39.046Z,97999.47
2022-10-29T12:47:11.638Z,97994.13
2022-10-29T12:49:46.620Z,97992.47
2022-10-29T12:52:16.752Z,97993.38
2022-10-29T12:54:45.294Z,97990.94
2022-10-29T12:57:29.138Z,97991.19
2022-10-29T12:59:56.266Z,97982.91
2022-10-29T13:02:29.569Z,97991.56
2022-10-29T13:05:18.155Z,97986.13
2022-10-29T13:08:22.257Z,97988.13
2022-10-29T13:10:53.936Z,97991.84
2022-10-29T13:13:40.756Z,97983.69
2022-10-29T13:16:11.981Z,97983.19
2022-10-29T13:18:45.957Z,97984.72
2022-10-29T13:21:14.655Z,97984.06
2022-10-29T13:23:41.897Z,97969.41
2022-10-29T13:26:09.029Z,97972.34
2022-10-29T13:28:49.664Z,97970.63
2022-10-29T13:31:48.058Z,97963.38
2022-10-29T13:34:57.410Z,97970.75
2022-10-29T13:37:55.753Z,97974.53
2022-10-29T13:41:19.052Z,97965.81
2022-10-29T13:43:52.841Z,97962.22
2022-10-29T13:46:46.812Z,97963.13
2022-10-29T13:49:17.128Z,97957.34
2022-10-29T13:51:49.467Z,97954.59
2022-10-29T13:54:21.119Z,97958.63
2022-10-29T13:56:50.277Z,97956.97
2022-10-29T13:59:28.091Z,97946.75
2022-10-29T14:02:00.914Z,97947.75
2022-10-29T14:04:31.336Z,97947.13
2022-10-29T14:06:59.204Z,97947.03
2022-10-29T14:09:33.425Z,97951.47
2022-10-29T14:12:01.462Z,97951.22
2022-10-29T14:14:32.707Z,97941.72
2022-10-29T14:17:13.252Z,97948.38
2022-10-29T14:19:46.696Z,97951.44
2022-10-29T14:22:32.485Z,97952.00
2022-10-29T14:25:01.583Z,97953.63
2022-10-29T14:27:29.164Z,97947.97
2022-10-29T14:30:11.616Z,97943.25
2022-10-29T14:32:39.069Z,97944.13
2022-10-29T14:35:07.104Z,97939.53
2022-10-29T14:37:36.190Z,97944.47
2022-10-29T14:40:06.414Z,97943.56
2022-10-29T14:42:34.371Z,97947.75
2022-10-29T14:45:02.845Z,97946.66
2022-10-29T14:47:33.270Z,97947.47
2022-10-29T14:50:01.057Z,97948.22
2022-10-29T14:52:29.897Z,97941.88
2022-10-29T14:54:58.237Z,97940.75
2022-10-29T14:57:27.807Z,97934.56
2022-10-29T14:59:55.969Z,97934.84
2022-10-29T15:02:39.179Z,97942.19
2022-10-29T15:05:24.996Z,97939.75
2022-10-29T15:08:14.588Z,97942.72
2022-10-29T15:10:46.356Z,97945.59
2022-10-29T15:13:34.897Z,97941.28
2022-10-29T15:16:03.479Z,97941.00
2022-10-29T15:18:30.828Z,97936.00
2022-10-29T15:20:57.974Z,97936.00
2022-10-29T15:23:27.557Z,97939.22
2022-10-29T15:25:59.264Z,97942.69
2022-10-29T15:28:37.500Z,97935.75
2022-10-29T15:31:08.303Z,97930.91
2022-10-29T15:33:35.997Z,97934.19
2022-10-29T15:36:03.460Z,97926.13
2022-10-29T15:39:11.760Z,97921.38
2022-10-29T15:41:44.118Z,97928.06
2022-10-29T15:44:29.129Z,97922.75
2022-10-29T15:46:56.607Z,97929.19
2022-10-29T15:49:26.938Z,97928.41
2022-10-29T15:52:21.466Z,97930.03
2022-10-29T15:54:55.325Z,97923.88
2022-10-29T16:00:22.603Z,97928.16
2022-10-29T16:12:54.147Z,97932.97
2022-10-29T16:35:49.964Z,97929.88
2022-10-29T16:45:38.932Z,97933.28
2022-10-29T16:48:26.556Z,97933.00
2022-10-29T16:50:58.758Z,97929.00
2022-10-29T16:53:26.333Z,97927.94
2022-10-29T16:55:53.607Z,97931.69
2022-10-29T16:58:22.986Z,97930.56
2022-10-29T17:00:51.998Z,97937.22
2022-10-29T17:03:24.495Z,97933.94
2022-10-29T17:05:55.714Z,97932.06
2022-10-29T17:08:23.295Z,97931.56
2022-10-29T17:10:53.598Z,97934.44
2022-10-29T17:13:21.907Z,97933.81
2022-10-29T17:15:49.358Z,97932.22
2022-10-29T17:18:20.294Z,97940.97
2022-10-29T17:20:59.226Z,97946.91
2022-10-29T17:23:26.712Z,97940.44
2022-10-29T17:25:54.638Z,97929.66
2022-10-29T17:28:27.496Z,97945.78
2022-10-29T17:30:57.116Z,97942.34
2022-10-29T17:33:26.564Z,97952.31
2022-10-29T17:36:01.574Z,97946.44
2022-10-29T17:38:31.878Z,97945.63
2022-10-29T17:41:10.134Z,97952.25
2022-10-29T17:43:41.955Z,97948.91
2022-10-29T17:46:09.515Z,97951.56
2022-10-29T17:48:55.194Z,97956.41
2022-10-29T17:51:22.800Z,97951.50
2022-10-29T17:53:50.272Z,97957.34
2022-10-29T17:56:17.776Z,97961.59
2022-10-29T17:58:47.493Z,97953.09
2022-10-29T18:01:15.019Z,97956.53
2022-10-29T18:03:43.937Z,97962.84
2022-10-29T18:06:11.995Z,97958.22
2022-10-29T18:08:40.165Z,97970.34
2022-10-29T18:11:08.364Z,97974.63
2022-10-29T18:13:36.275Z,97970.00
2022-10-29T18:16:03.482Z,97972.81
2022-10-29T18:18:42.781Z,97970.34
2022-10-29T18:21:23.847Z,97972.69
2022-10-29T18:23:51.165Z,97968.06
2022-10-29T18:26:23.166Z,97967.00
2022-10-29T18:28:50.564Z,97972.81
2022-10-29T18:31:17.925Z,97974.53
2022-10-29T18:33:49.704Z,97974.44
2022-10-29T18:36:17.086Z,97971.56
2022-10-29T18:38:49.485Z,97974.34
2022-10-29T18:41:16.867Z,97974.16
2022-10-29T18:43:44.486Z,97968.34
2022-10-29T18:46:11.975Z,97964.66
2022-10-29T18:48:39.975Z,97955.56
2022-10-29T18:51:08.664Z,97968.50
2022-10-29T18:53:36.865Z,97960.59
2022-10-29T18:56:09.186Z,97961.94
2022-10-29T18:58:36.643Z,97962.19
2022-10-29T19:01:04.446Z,97963.69
2022-10-29T19:03:31.887Z,97958.34
2022-10-29T19:06:01.385Z,97955.16
2022-10-29T19:08:28.764Z,97964.00
2022-10-29T19:11:01.189Z,97961.69
2022-10-29T19:13:30.205Z,97964.78
2022-10-29T19:16:13.764Z,97959.34
2022-10-29T19:18:41.390Z,97963.56
2022-10-29T19:21:09.764Z,97970.59
2022-10-29T19:23:37.224Z,97956.13
2022-10-29T19:26:04.904Z,97964.78
2022-10-29T19:28:33.786Z,97966.91
2022-10-29T19:31:04.247Z,97964.69
2022-10-29T19:33:31.789Z,97965.72
2022-10-29T19:35:59.038Z,97961.94
2022-10-29T19:38:26.304Z,97964.47
2022-10-29T19:40:53.592Z,97959.53
2022-10-29T19:43:20.887Z,97959.09
2022-10-29T19:45:49.713Z,97966.97
2022-10-29T19:48:16.948Z,97964.59
2022-10-29T19:50:44.147Z,97967.66
2022-10-29T19:53:11.629Z,97966.47
2022-10-29T19:55:39.807Z,97961.88
2022-10-29T19:58:07.310Z,97960.22
2022-10-29T20:00:40.440Z,97958.16
2022-10-29T20:03:09.329Z,97961.56
2022-10-29T20:05:36.630Z,97952.19
2022-10-29T20:08:04.018Z,97967.13
2022-10-29T20:10:31.329Z,97960.09
2022-10-29T20:12:58.922Z,97955.44
2022-10-29T20:15:26.022Z,97956.88
2022-10-29T20:17:53.168Z,97957.47
2022-10-29T20:20:21.828Z,97953.94
2022-10-29T20:22:48.985Z,97955.38
2022-10-29T20:25:19.963Z,97957.41
2022-10-29T20:27:51.227Z,97956.13
2022-10-29T20:30:18.512Z,97955.00
2022-10-29T20:32:45.669Z,97956.66
2022-10-29T20:35:12.830Z,97957.97
2022-10-29T20:37:41.368Z,97952.19
2022-10-29T20:40:09.996Z,97955.03
2022-10-29T20:42:37.236Z,97955.81
2022-10-29T20:45:05.116Z,97959.66
2022-10-29T20:47:32.218Z,97963.78
2022-10-29T20:49:59.496Z,97956.59
2022-10-29T20:52:26.770Z,97956.06
2022-10-29T20:54:55.555Z,97953.09
2022-10-29T20:57:22.674Z,97950.66
2022-10-29T20:59:49.857Z,97949.34
2022-10-29T21:02:17.155Z,97950.66
2022-10-29T21:04:44.416Z,97958.84
